Time;durP1;ratioP1;P1;durP2;ratioP2;P2;SDS_P1;SDS_P2;PMS_P1;PMS_P2;Temp;Humidity;BMP_temperature;BMP_pressure;BME280_temperature;BME280_humidity;BME280_pressure;Samples;Min_cycle;Max_cycle;Signal;HPM_P1;HPM_P2
2022/06/14 00:01:29;;;;;;;1.67;1.50;;;11.40;99.90;;;;;;5031830;28;20174;-76
2022/06/14 00:03:57;;;;;;;2.00;1.60;;;11.30;99.90;;;;;;4998621;28;20210;-76
2022/06/14 00:06:26;;;;;;;1.60;1.50;;;11.30;99.90;;;;;;5015540;28;20660;-76
2022/06/14 00:08:52;;;;;;;2.30;1.87;;;11.20;99.90;;;;;;5031902;28;20175;-76
2022/06/14 00:11:22;;;;;;;2.03;1.70;;;11.20;99.90;;;;;;5031580;28;20655;-75
2022/06/14 00:13:49;;;;;;;1.73;1.60;;;11.30;99.90;;;;;;5031399;28;20195;-76
2022/06/14 00:16:15;;;;;;;2.83;1.60;;;11.30;99.90;;;;;;5015204;28;20178;-76
2022/06/14 00:18:41;;;;;;;2.07;1.60;;;11.40;99.90;;;;;;5031315;28;20175;-76
2022/06/14 00:21:07;;;;;;;2.17;1.60;;;11.50;99.90;;;;;;5032690;28;20656;-76
2022/06/14 00:23:34;;;;;;;2.00;1.60;;;11.60;99.90;;;;;;5014667;28;20222;-76
2022/06/14 00:26:02;;;;;;;2.37;1.70;;;11.40;99.90;;;;;;5031541;28;20671;-76
2022/06/14 00:28:31;;;;;;;2.00;1.60;;;11.60;99.90;;;;;;5031693;28;20170;-76
2022/06/14 00:31:05;;;;;;;1.70;1.57;;;11.30;99.90;;;;;;5015255;28;20257;-76
2022/06/14 00:33:31;;;;;;;1.70;1.60;;;11.40;99.90;;;;;;5032460;28;20331;-76
2022/06/14 00:36:22;;;;;;;2.50;1.53;;;11.50;99.90;;;;;;4998777;28;20723;-76
2022/06/14 00:38:48;;;;;;;2.57;1.90;;;11.40;99.90;;;;;;5032010;28;20182;-76
2022/06/14 00:41:31;;;;;;;1.77;1.67;;;11.60;99.90;;;;;;5015159;28;20594;-76
2022/06/14 00:43:57;;;;;;;2.37;1.70;;;11.60;99.90;;;;;;5031180;28;20578;-76
2022/06/14 00:46:33;;;;;;;2.27;1.80;;;11.60;99.90;;;;;;5014860;28;20672;-76
2022/06/14 00:49:04;;;;;;;2.03;1.80;;;11.50;99.90;;;;;;5032489;28;20233;-76
2022/06/14 00:51:34;;;;;;;2.73;1.60;;;11.60;99.90;;;;;;5031223;28;20159;-76
2022/06/14 00:54:36;;;;;;;1.70;1.40;;;11.40;99.90;;;;;;5032210;28;20305;-76
2022/06/14 00:57:08;;;;;;;2.57;1.80;;;11.50;99.90;;;;;;5020318;28;20582;-76
2022/06/14 00:59:53;;;;;;;3.17;2.10;;;11.40;99.90;;;;;;5031251;28;20162;-76
2022/06/14 01:02:23;;;;;;;2.53;1.80;;;11.50;99.90;;;;;;5030997;28;20652;-76
2022/06/14 01:04:49;;;;;;;1.60;1.50;;;11.60;99.90;;;;;;5032554;28;20202;-76
2022/06/14 01:07:28;;;;;;;2.03;1.40;;;11.30;99.90;;;;;;5018544;28;20174;-76
2022/06/14 01:10:03;;;;;;;2.67;1.63;;;11.10;99.90;;;;;;5035005;28;20249;-76
2022/06/14 01:12:35;;;;;;;2.67;1.90;;;11.00;99.90;;;;;;5034967;28;20567;-76
2022/06/14 01:15:09;;;;;;;1.70;1.60;;;11.10;99.90;;;;;;5034715;28;20569;-76
2022/06/14 01:18:07;;;;;;;2.60;1.90;;;11.00;99.90;;;;;;5034599;28;20178;-76
2022/06/14 01:20:34;;;;;;;2.70;1.60;;;11.00;99.90;;;;;;5035050;28;20194;-76
2022/06/14 01:23:01;;;;;;;3.00;1.97;;;10.70;99.90;;;;;;5034500;28;20224;-76
2022/06/14 01:25:30;;;;;;;2.33;1.60;;;10.70;99.90;;;;;;5018552;28;20250;-76
2022/06/14 01:27:57;;;;;;;1.73;1.57;;;10.70;99.90;;;;;;5034631;28;20188;-76
2022/06/14 01:30:30;;;;;;;2.30;1.57;;;10.60;99.90;;;;;;5035748;28;20174;-76
2022/06/14 01:33:05;;;;;;;2.67;1.57;;;10.70;99.90;;;;;;5018147;28;20177;-76
2022/06/14 01:35:37;;;;;;;1.90;1.67;;;10.90;99.90;;;;;;5034247;28;20178;-76
2022/06/14 01:38:10;;;;;;;1.60;1.50;;;10.50;99.90;;;;;;5035645;28;20557;-76
2022/06/14 01:40:58;;;;;;;1.73;1.50;;;10.30;99.90;;;;;;5035559;28;20550;-76
2022/06/14 01:43:55;;;;;;;2.93;1.70;;;10.50;99.90;;;;;;5034080;28;20264;-76
2022/06/14 01:46:27;;;;;;;2.37;1.80;;;10.50;99.90;;;;;;5034301;28;20584;-76
2022/06/14 01:52:02;;;;;;;2.33;1.50;;;10.50;99.90;;;;;;5035354;28;20585;-76
2022/06/14 01:54:40;;;;;;;2.10;1.90;;;10.20;99.90;;;;;;5034066;28;20574;-76
2022/06/14 01:57:27;;;;;;;2.17;1.83;;;10.10;99.90;;;;;;5034109;28;20181;-76
2022/06/14 02:00:13;;;;;;;1.73;1.63;;;10.10;99.90;;;;;;5034303;28;20166;-76
2022/06/14 02:02:45;;;;;;;3.43;1.80;;;10.20;99.90;;;;;;5017747;28;20174;-75
2022/06/14 02:05:19;;;;;;;2.10;1.60;;;10.20;99.90;;;;;;5035135;28;20205;-75
2022/06/14 02:07:47;;;;;;;2.07;1.67;;;10.10;99.90;;;;;;5034170;28;20241;-75
2022/06/14 02:10:39;;;;;;;1.60;1.50;;;10.00;99.90;;;;;;5033774;28;20177;-75
2022/06/14 02:13:08;;;;;;;2.73;1.70;;;10.10;99.90;;;;;;5033595;28;20178;-75
2022/06/14 02:15:52;;;;;;;2.57;1.67;;;10.10;99.90;;;;;;5033204;28;20659;-75
2022/06/14 02:19:07;;;;;;;2.50;1.60;;;10.20;99.90;;;;;;5033425;28;20171;-75
2022/06/14 02:21:43;;;;;;;2.63;1.70;;;10.30;99.90;;;;;;5033536;28;20173;-75
2022/06/14 02:24:24;;;;;;;1.93;1.50;;;10.30;99.90;;;;;;5033162;28;20216;-75
2022/06/14 02:27:04;;;;;;;2.20;1.50;;;10.20;99.90;;;;;;5033549;28;20251;-75
2022/06/14 02:29:39;;;;;;;3.67;1.77;;;10.20;99.90;;;;;;5033453;28;20185;-75
2022/06/14 02:32:28;;;;;;;1.63;1.50;;;10.30;99.90;;;;;;5033183;28;20628;-75
2022/06/14 02:35:04;;;;;;;2.50;1.70;;;10.20;99.90;;;;;;5032878;28;20618;-75
2022/06/14 02:37:40;;;;;;;3.73;1.70;;;10.10;99.90;;;;;;5033358;28;20170;-75
2022/06/14 02:40:17;;;;;;;1.70;1.57;;;10.10;99.90;;;;;;5033202;28;20633;-75
2022/06/14 02:42:53;;;;;;;2.00;1.70;;;10.10;99.90;;;;;;5033087;28;20178;-75
2022/06/14 02:45:57;;;;;;;2.00;1.60;;;10.10;99.90;;;;;;5033319;28;20739;-75
2022/06/14 02:48:31;;;;;;;2.37;1.40;;;10.20;99.90;;;;;;5015561;28;20820;-75
2022/06/14 02:51:18;;;;;;;2.30;1.63;;;10.30;99.90;;;;;;5030504;28;20277;-75
2022/06/14 02:54:07;;;;;;;2.50;1.30;;;10.30;99.90;;;;;;5034019;28;20218;-75
2022/06/14 02:56:56;;;;;;;1.70;1.60;;;10.20;99.90;;;;;;5033215;28;20176;-75
2022/06/14 02:59:37;;;;;;;3.30;1.80;;;9.80;99.90;;;;;;5033273;28;20181;-75
2022/06/14 03:02:13;;;;;;;2.33;1.43;;;9.60;99.90;;;;;;5032586;28;20826;-75
2022/06/14 03:04:51;;;;;;;1.70;1.60;;;9.70;99.90;;;;;;5032755;28;20260;-75
2022/06/14 03:07:26;;;;;;;1.97;1.70;;;9.50;99.90;;;;;;5034067;28;20635;-75
2022/06/14 03:09:53;;;;;;;2.20;1.40;;;9.40;99.90;;;;;;5016550;28;20587;-75
2022/06/14 03:12:40;;;;;;;1.77;1.60;;;9.50;99.90;;;;;;5032870;28;20189;-75
2022/06/14 03:15:41;;;;;;;3.03;1.73;;;9.60;99.90;;;;;;5032812;28;20213;-75
2022/06/14 03:18:40;;;;;;;2.43;1.80;;;9.40;99.90;;;;;;5027477;28;20275;-75
2022/06/14 03:21:43;;;;;;;2.27;1.70;;;9.60;99.90;;;;;;5032847;28;20177;-75
2022/06/14 03:24:32;;;;;;;1.70;1.60;;;9.60;99.90;;;;;;5032384;28;20209;-75
2022/06/14 03:27:33;;;;;;;2.10;1.80;;;9.50;99.90;;;;;;5018280;28;20191;-75
2022/06/14 03:30:17;;;;;;;3.10;1.80;;;9.60;99.90;;;;;;5032610;28;20166;-75
2022/06/14 03:33:02;;;;;;;1.70;1.60;;;9.50;99.90;;;;;;5032072;28;20260;-75
2022/06/14 03:35:30;;;;;;;2.10;1.90;;;9.40;99.90;;;;;;5032230;28;20556;-75
2022/06/14 03:37:59;;;;;;;2.93;1.67;;;9.40;99.90;;;;;;5032474;28;20192;-75
2022/06/14 03:40:25;;;;;;;2.30;1.87;;;9.30;99.90;;;;;;5016001;28;20559;-75
2022/06/14 03:42:51;;;;;;;2.17;1.80;;;9.30;99.90;;;;;;5031886;28;20276;-75
2022/06/14 03:45:21;;;;;;;2.10;1.73;;;9.50;99.90;;;;;;5015654;28;20229;-75
2022/06/14 03:47:47;;;;;;;1.73;1.63;;;9.50;99.90;;;;;;5015824;28;20163;-75
2022/06/14 03:50:18;;;;;;;2.13;1.70;;;9.00;99.90;;;;;;5015622;28;20205;-75
2022/06/14 03:53:11;;;;;;;2.00;1.70;;;9.00;99.90;;;;;;5016187;28;20177;-75
2022/06/14 03:56:00;;;;;;;1.80;1.70;;;8.90;99.90;;;;;;5022309;28;20178;-75
2022/06/14 03:58:46;;;;;;;2.93;2.10;;;8.80;99.90;;;;;;5032178;28;20633;-75
2022/06/14 04:01:23;;;;;;;2.90;2.10;;;8.80;99.90;;;;;;5031745;28;20170;-75
2022/06/14 04:04:09;;;;;;;2.37;2.00;;;9.10;99.90;;;;;;5031521;28;20193;-75
2022/06/14 04:07:15;;;;;;;3.73;2.00;;;9.30;99.90;;;;;;5032968;28;20151;-75
2022/06/14 04:09:54;;;;;;;3.00;1.90;;;9.50;99.90;;;;;;5031977;28;20249;-75
2022/06/14 04:12:32;;;;;;;2.83;2.00;;;9.50;99.90;;;;;;5031719;28;20158;-75
2022/06/14 04:15:36;;;;;;;2.10;1.90;;;9.50;99.90;;;;;;5032806;28;20587;-75
2022/06/14 04:21:53;;;;;;;2.47;1.70;;;9.10;99.90;;;;;;5032796;28;20211;-75
2022/06/14 04:24:41;;;;;;;5.57;2.10;;;9.00;99.90;;;;;;5031397;28;20213;-75
2022/06/14 04:27:40;;;;;;;2.63;2.27;;;9.20;99.90;;;;;;5031808;28;20166;-75
2022/06/14 04:30:20;;;;;;;2.57;2.10;;;9.40;99.90;;;;;;5027016;28;20187;-75
2022/06/14 04:32:54;;;;;;;3.37;2.10;;;9.50;99.90;;;;;;5031229;28;20173;-75
2022/06/14 04:35:48;;;;;;;2.27;2.07;;;9.50;99.90;;;;;;5031252;28;20201;-75
2022/06/14 04:38:54;;;;;;;3.47;2.30;;;9.80;99.90;;;;;;5031389;28;20166;-75
2022/06/14 04:41:34;;;;;;;3.60;2.20;;;9.90;99.90;;;;;;5035630;28;20180;-75
2022/06/14 04:44:12;;;;;;;3.63;2.20;;;10.00;99.90;;;;;;5018673;28;20210;-75
2022/06/14 04:46:44;;;;;;;3.07;2.30;;;9.90;99.90;;;;;;5035439;28;20184;-75
2022/06/14 04:49:32;;;;;;;3.37;2.10;;;10.00;99.90;;;;;;5036624;28;20161;-75
2022/06/14 04:52:18;;;;;;;3.07;1.90;;;10.00;99.90;;;;;;5035113;28;20180;-75
2022/06/14 04:55:02;;;;;;;2.63;2.33;;;10.00;99.90;;;;;;5035448;28;20198;-75
2022/06/14 04:57:34;;;;;;;3.03;2.47;;;10.00;99.90;;;;;;5035121;28;20700;-75
2022/06/14 05:00:09;;;;;;;1.90;1.80;;;10.00;99.90;;;;;;5035413;28;20180;-75
2022/06/14 05:02:39;;;;;;;3.60;2.17;;;9.80;99.90;;;;;;5036379;28;20170;-75
2022/06/14 05:05:10;;;;;;;2.27;2.07;;;9.80;99.90;;;;;;5034884;28;20220;-75
2022/06/14 05:07:45;;;;;;;2.53;1.93;;;9.80;99.90;;;;;;5035033;28;20585;-76
2022/06/14 05:10:16;;;;;;;3.13;2.43;;;9.70;99.90;;;;;;5018528;28;20208;-76
2022/06/14 05:13:12;;;;;;;2.37;2.00;;;9.80;99.90;;;;;;5034902;28;20174;-76
2022/06/14 05:15:48;;;;;;;3.03;2.40;;;9.90;99.90;;;;;;5034871;28;20162;-76
2022/06/14 05:18:34;;;;;;;3.13;2.40;;;10.10;99.90;;;;;;5035006;28;20166;-76
2022/06/14 05:21:22;;;;;;;5.00;2.50;;;10.10;99.90;;;;;;5034876;28;20170;-76
2022/06/14 05:23:51;;;;;;;4.17;2.67;;;10.20;99.90;;;;;;5034346;28;20303;-76
2022/06/14 05:26:57;;;;;;;4.37;2.67;;;10.20;99.90;;;;;;5034784;28;20209;-76
2022/06/14 05:29:44;;;;;;;3.20;2.90;;;10.40;99.90;;;;;;5034634;28;20173;-76
2022/06/14 05:32:25;;;;;;;5.03;3.10;;;10.50;99.90;;;;;;5034401;28;20194;-77
2022/06/14 05:35:25;;;;;;;3.80;3.10;;;10.50;99.90;;;;;;5034550;28;20267;-76
2022/06/14 05:38:12;;;;;;;4.83;3.20;;;10.50;99.90;;;;;;5034775;28;20184;-77
2022/06/14 05:40:50;;;;;;;4.77;3.50;;;10.60;99.90;;;;;;5035692;28;20196;-77
2022/06/14 05:43:26;;;;;;;5.23;3.13;;;10.70;99.90;;;;;;5034128;28;20205;-77
2022/06/14 05:45:57;;;;;;;4.27;3.20;;;10.90;99.90;;;;;;5034206;28;20915;-77
2022/06/14 05:48:29;;;;;;;3.97;2.90;;;11.10;99.90;;;;;;5018263;28;20174;-77
2022/06/14 05:50:56;;;;;;;4.57;2.87;;;11.20;99.90;;;;;;5017530;28;20583;-77
2022/06/14 05:53:48;;;;;;;4.77;3.13;;;11.30;99.90;;;;;;5018022;28;20182;-77
2022/06/14 05:56:32;;;;;;;4.67;3.17;;;11.50;99.90;;;;;;5034338;28;20182;-77
2022/06/14 05:59:14;;;;;;;5.03;3.10;;;11.70;99.90;;;;;;5034308;28;20174;-76
2022/06/14 06:01:50;;;;;;;3.93;2.90;;;11.80;99.90;;;;;;5033990;28;20167;-76
2022/06/14 06:04:34;;;;;;;4.60;2.90;;;11.80;99.90;;;;;;5034193;28;20292;-76
2022/06/14 06:07:06;;;;;;;5.40;2.80;;;11.80;99.90;;;;;;5034244;28;20215;-76
2022/06/14 06:09:40;;;;;;;3.63;2.80;;;11.80;99.90;;;;;;5033838;28;20177;-76
2022/06/14 06:12:23;;;;;;;5.37;3.03;;;11.80;99.90;;;;;;5001193;28;20174;-75
2022/06/14 06:14:54;;;;;;;3.70;3.23;;;11.90;99.90;;;;;;5033969;28;20199;-75
2022/06/14 06:17:29;;;;;;;3.53;3.20;;;12.10;99.90;;;;;;5017142;28;20179;-75
2022/06/14 06:20:09;;;;;;;3.90;3.33;;;12.20;99.90;;;;;;5033962;28;20692;-75
2022/06/14 06:23:11;;;;;;;3.30;2.90;;;12.30;99.90;;;;;;5033513;28;20166;-75
2022/06/14 06:25:41;;;;;;;4.10;3.03;;;12.30;99.90;;;;;;5028580;28;20252;-75
2022/06/14 06:28:29;;;;;;;3.80;2.90;;;12.50;99.90;;;;;;5033648;28;20178;-75
2022/06/14 06:31:09;;;;;;;6.03;3.40;;;12.60;99.90;;;;;;5034707;28;20163;-75
2022/06/14 06:33:40;;;;;;;4.77;3.00;;;12.70;99.90;;;;;;5033239;28;20194;-75
2022/06/14 06:36:27;;;;;;;3.13;2.83;;;12.90;99.90;;;;;;5033665;28;20179;-75
2022/06/14 06:39:13;;;;;;;4.40;3.07;;;13.00;99.90;;;;;;5033279;28;20187;-75
2022/06/14 06:41:49;;;;;;;3.17;2.50;;;13.20;99.90;;;;;;5033480;28;20185;-75
2022/06/14 06:44:37;;;;;;;3.23;2.70;;;13.40;99.90;;;;;;5018168;28;20198;-75
2022/06/14 06:47:21;;;;;;;2.70;2.47;;;13.60;99.90;;;;;;5034443;28;20170;-76
2022/06/14 06:49:47;;;;;;;3.93;2.60;;;13.70;99.90;;;;;;5032647;28;20228;-76
2022/06/14 06:52:17;;;;;;;3.03;2.60;;;13.80;99.90;;;;;;5033167;28;20269;-76
2022/06/14 06:55:07;;;;;;;4.57;2.33;;;14.00;99.90;;;;;;5017146;28;20202;-76
2022/06/14 06:57:35;;;;;;;4.53;2.40;;;14.20;99.90;;;;;;5032976;28;20162;-76
2022/06/14 07:00:04;;;;;;;3.40;2.10;;;14.40;99.90;;;;;;5016748;28;20191;-76
2022/06/14 07:02:54;;;;;;;3.53;2.10;;;14.50;99.90;;;;;;5032774;28;20197;-76
2022/06/14 07:05:19;;;;;;;5.47;2.00;;;14.60;99.90;;;;;;5033002;28;20214;-76
2022/06/14 07:07:54;;;;;;;3.07;1.90;;;14.70;99.90;;;;;;5016627;28;20179;-75
2022/06/14 07:10:27;;;;;;;4.40;2.10;;;14.80;99.90;;;;;;5032630;28;20181;-75
2022/06/14 07:13:13;;;;;;;3.67;2.40;;;15.00;99.90;;;;;;5032743;28;20185;-75
2022/06/14 07:15:59;;;;;;;4.57;1.90;;;15.20;99.90;;;;;;5034422;28;20178;-75
2022/06/14 07:21:55;;;;;;;4.53;2.07;;;15.30;99.90;;;;;;5033640;28;20640;-75
2022/06/14 07:24:33;;;;;;;2.50;1.90;;;15.40;99.90;;;;;;5016439;28;20224;-76
2022/06/14 07:27:10;;;;;;;3.37;1.97;;;15.50;99.90;;;;;;5035555;23;20219;-75
2022/06/14 07:29:42;;;;;;;4.17;1.93;;;15.60;99.90;;;;;;5028714;28;20193;-75
2022/06/14 07:32:32;;;;;;;3.07;1.73;;;15.70;99.90;;;;;;5012229;28;20171;-75
2022/06/14 07:35:00;;;;;;;3.83;1.80;;;15.80;99.90;;;;;;5012255;28;20183;-75
2022/06/14 07:37:39;;;;;;;3.07;1.70;;;16.00;99.90;;;;;;5012019;28;20226;-76
2022/06/14 07:40:20;;;;;;;4.17;1.70;;;16.10;99.90;;;;;;5012675;28;20175;-75
2022/06/14 07:43:11;;;;;;;2.90;1.80;;;16.10;99.90;;;;;;5012331;28;20174;-75
2022/06/14 07:45:40;;;;;;;4.03;1.70;;;16.30;99.90;;;;;;5012212;28;20246;-76
2022/06/14 07:48:17;;;;;;;3.03;1.70;;;16.40;99.90;;;;;;4995566;28;20185;-76
2022/06/14 07:51:01;;;;;;;2.97;1.73;;;16.60;99.90;;;;;;5013185;28;20170;-75
2022/06/14 07:53:40;;;;;;;2.70;1.70;;;16.70;99.90;;;;;;4996364;28;20229;-76
2022/06/14 07:56:16;;;;;;;2.77;1.70;;;16.80;99.90;;;;;;5012434;28;20195;-75
2022/06/14 07:59:07;;;;;;;1.90;1.67;;;16.90;99.90;;;;;;5012599;28;20622;-76
2022/06/14 08:01:51;;;;;;;3.70;1.87;;;17.00;99.90;;;;;;5012129;28;20171;-76
2022/06/14 08:04:30;;;;;;;3.20;1.80;;;17.10;99.90;;;;;;5012019;28;20175;-76
2022/06/14 08:07:05;;;;;;;2.27;1.80;;;17.20;99.90;;;;;;5013446;28;20218;-76
2022/06/14 08:09:52;;;;;;;3.17;1.80;;;17.30;99.90;;;;;;5012423;28;20256;-76
2022/06/14 08:12:43;;;;;;;2.30;1.50;;;17.40;99.90;;;;;;4997743;28;20258;-76
2022/06/14 08:15:14;;;;;;;3.60;1.73;;;17.40;99.90;;;;;;5012698;28;20182;-76
2022/06/14 08:17:59;;;;;;;2.43;1.70;;;17.50;99.90;;;;;;5011979;28;20679;-76
2022/06/14 08:20:31;;;;;;;2.50;1.63;;;17.70;99.90;;;;;;5012170;28;20175;-75
2022/06/14 08:23:06;;;;;;;4.20;1.60;;;17.70;99.90;;;;;;5011736;28;20179;-76
2022/06/14 08:25:40;;;;;;;2.87;1.60;;;17.90;99.90;;;;;;5011571;28;20202;-76
2022/06/14 08:28:11;;;;;;;3.00;1.40;;;18.00;99.90;;;;;;4996063;28;20220;-76
2022/06/14 08:31:14;;;;;;;3.53;1.73;;;18.20;99.90;;;;;;5013087;28;20170;-76
2022/06/14 08:33:59;;;;;;;3.53;1.60;;;18.20;99.90;;;;;;5011633;28;20167;-76
2022/06/14 08:36:36;;;;;;;3.87;1.63;;;18.30;99.90;;;;;;5011872;28;20202;-76
2022/06/14 08:39:07;;;;;;;6.57;1.83;;;18.40;99.90;;;;;;5011877;28;20266;-76
2022/06/14 08:41:57;;;;;;;1.90;1.33;;;18.50;99.90;;;;;;4995743;28;20622;-76
2022/06/14 08:44:32;;;;;;;5.00;1.63;;;18.50;97.10;;;;;;5011784;28;20257;-76
2022/06/14 08:47:09;;;;;;;3.97;1.53;;;18.60;99.30;;;;;;4996532;28;20202;-76
2022/06/14 08:49:49;;;;;;;3.50;1.90;;;18.90;99.90;;;;;;5011945;28;20273;-76
2022/06/14 08:52:27;;;;;;;2.40;1.43;;;19.00;98.10;;;;;;4995711;28;20230;-76
2022/06/14 08:55:09;;;;;;;2.40;1.50;;;19.10;95.60;;;;;;5011747;28;20178;-76
2022/06/14 08:57:40;;;;;;;2.40;1.10;;;19.20;93.90;;;;;;5011787;28;20217;-76
2022/06/14 09:00:08;;;;;;;2.47;1.20;;;19.30;94.10;;;;;;5011541;28;20590;-76
2022/06/14 09:02:37;;;;;;;2.37;1.20;;;19.50;88.30;;;;;;4994979;28;20183;-76
2022/06/14 09:05:41;;;;;;;1.80;1.03;;;19.50;86.60;;;;;;5011730;28;20202;-76
2022/06/14 09:08:29;;;;;;;1.80;1.20;;;19.60;73.30;;;;;;4974452;28;20694;-76
2022/06/14 09:11:04;;;;;;;1.53;1.30;;;19.70;80.40;;;;;;4990152;28;20187;-76
2022/06/14 09:13:39;;;;;;;2.73;1.40;;;19.60;87.10;;;;;;5015062;28;20187;-76
2022/06/14 09:16:14;;;;;;;1.67;1.20;;;19.70;81.50;;;;;;5011505;28;20649;-76
2022/06/14 09:19:08;;;;;;;1.70;1.20;;;20.00;90.40;;;;;;5011782;28;20211;-76
2022/06/14 09:21:52;;;;;;;2.70;1.40;;;20.30;85.30;;;;;;5012574;28;20175;-76
2022/06/14 09:24:26;;;;;;;2.13;1.20;;;20.30;83.30;;;;;;5011122;28;20182;-76
2022/06/14 09:27:06;;;;;;;1.80;1.40;;;20.40;85.20;;;;;;5014258;28;20293;-77
2022/06/14 09:29:49;;;;;;;2.78;1.40;;;20.70;81.80;;;;;;5016147;28;20152;-77
2022/06/14 09:32:24;;;;;;;2.90;1.30;;;20.80;75.70;;;;;;5015045;28;20182;-77
2022/06/14 09:35:16;;;;;;;3.58;1.40;;;20.70;78.00;;;;;;5015592;28;20540;-78
2022/06/14 09:38:04;;;;;;;1.98;1.40;;;20.80;79.60;;;;;;5014962;28;20199;-77
2022/06/14 09:41:10;;;;;;;1.70;1.30;;;20.90;78.00;;;;;;5014694;28;20179;-78
2022/06/14 09:43:45;;;;;;;4.35;1.60;;;20.80;74.00;;;;;;5015091;28;20190;-78
2022/06/14 09:46:29;;;;;;;4.38;2.95;;;21.00;72.30;;;;;;5015716;28;20214;-78
2022/06/14 09:49:21;;;;;;;2.55;1.40;;;21.30;89.60;;;;;;5014900;28;20171;-78
2022/06/14 09:52:08;;;;;;;3.50;1.33;;;21.30;74.30;;;;;;5015744;28;20246;-78
2022/06/14 09:54:52;;;;;;;2.55;1.33;;;21.20;71.90;;;;;;5014842;28;20221;-78
2022/06/14 09:57:33;;;;;;;1.63;1.40;;;21.30;71.70;;;;;;5014625;28;20289;-78
2022/06/14 10:00:16;;;;;;;1.67;1.40;;;21.60;76.70;;;;;;5014536;28;20174;-77
2022/06/14 10:03:00;;;;;;;2.58;1.40;;;21.90;69.90;;;;;;5014537;28;20171;-76
2022/06/14 10:05:40;;;;;;;2.65;1.20;;;21.80;69.40;;;;;;5014237;28;20290;-76
2022/06/14 10:08:21;;;;;;;3.33;1.50;;;21.90;68.10;;;;;;5014333;28;20167;-76
2022/06/14 10:11:03;;;;;;;2.78;1.60;;;21.90;68.80;;;;;;5015497;28;20163;-76
2022/06/14 10:13:52;;;;;;;1.75;1.20;;;22.00;68.80;;;;;;5015248;28;20191;-76
2022/06/14 10:16:33;;;;;;;2.42;1.40;;;22.30;71.50;;;;;;5014245;28;20669;-76
2022/06/14 10:19:12;;;;;;;2.42;1.10;;;22.00;66.20;;;;;;5014073;28;20282;-76
2022/06/14 10:21:46;;;;;;;1.33;1.20;;;22.30;67.60;;;;;;5013828;28;20167;-76
2022/06/14 10:24:31;;;;;;;2.78;1.40;;;22.30;69.90;;;;;;5014313;28;20649;-76
2022/06/14 10:30:18;;;;;;;3.53;1.42;;;22.40;61.20;;;;;;5015078;28;20274;-76
2022/06/14 10:32:49;;;;;;;2.00;1.30;;;22.30;62.10;;;;;;5013890;28;20174;-76
2022/06/14 10:35:41;;;;;;;4.78;1.50;;;22.70;64.10;;;;;;5013789;28;20183;-76
2022/06/14 10:38:29;;;;;;;3.67;1.50;;;22.80;61.70;;;;;;5014659;28;20513;-76
2022/06/14 10:41:26;;;;;;;2.25;1.40;;;23.00;62.20;;;;;;5013958;28;20160;-76
2022/06/14 10:44:12;;;;;;;2.30;1.40;;;23.20;64.30;;;;;;5000788;28;20211;-76
2022/06/14 10:46:45;;;;;;;1.98;1.42;;;23.10;62.40;;;;;;5014657;28;20203;-76
2022/06/14 10:49:37;;;;;;;2.72;1.50;;;23.30;65.10;;;;;;5013324;28;20164;-76
2022/06/14 10:52:47;;;;;;;1.85;1.40;;;23.70;61.10;;;;;;5013419;28;20179;-76
2022/06/14 10:55:26;;;;;;;2.25;1.30;;;23.70;58.80;;;;;;4991347;28;20190;-76
2022/06/14 10:58:29;;;;;;;3.30;1.50;;;23.30;60.70;;;;;;5013220;28;20657;-76
2022/06/14 11:01:16;;;;;;;2.88;1.27;;;23.40;59.80;;;;;;5013712;28;20181;-76
2022/06/14 11:04:08;;;;;;;2.78;1.30;;;23.60;61.60;;;;;;5010776;28;20186;-76
2022/06/14 11:06:53;;;;;;;1.95;1.33;;;24.00;63.80;;;;;;5012392;28;20207;-76
2022/06/14 11:09:44;;;;;;;1.52;1.30;;;24.40;60.90;;;;;;5012569;28;20182;-76
2022/06/14 11:12:38;;;;;;;2.28;1.20;;;24.60;57.20;;;;;;5013809;28;20237;-76
2022/06/14 11:15:41;;;;;;;1.98;1.40;;;24.80;58.40;;;;;;5012604;28;20231;-76
2022/06/14 11:18:32;;;;;;;1.73;1.20;;;24.60;56.40;;;;;;5013306;28;20649;-76
2022/06/14 11:21:13;;;;;;;2.88;1.40;;;24.50;56.40;;;;;;4992576;28;20188;-76
2022/06/14 11:23:42;;;;;;;2.20;1.35;;;24.60;59.10;;;;;;4991922;28;20202;-76
2022/06/14 11:26:39;;;;;;;2.55;1.33;;;24.90;56.20;;;;;;5009531;28;20226;-75
2022/06/14 11:29:36;;;;;;;2.47;1.30;;;25.20;56.00;;;;;;4992676;28;20176;-76
2022/06/14 11:32:16;;;;;;;2.30;1.30;;;25.50;57.90;;;;;;5010190;28;20178;-75
2022/06/14 11:34:57;;;;;;;1.85;1.40;;;25.70;52.40;;;;;;5012315;28;20178;-76
2022/06/14 11:37:55;;;;;;;1.90;1.30;;;25.40;52.00;;;;;;5013257;28;20198;-75
2022/06/14 11:40:32;;;;;;;3.55;1.60;;;25.50;51.60;;;;;;5012253;28;20262;-76
2022/06/14 11:43:22;;;;;;;3.42;1.50;;;25.30;50.60;;;;;;4995333;28;20649;-76
2022/06/14 11:45:57;;;;;;;2.22;1.40;;;25.60;51.60;;;;;;5011826;28;20211;-76
2022/06/14 11:48:43;;;;;;;2.75;1.40;;;25.90;52.50;;;;;;4995276;28;20178;-76
2022/06/14 11:51:08;;;;;;;2.53;1.30;;;25.90;53.30;;;;;;5011962;28;20171;-76
2022/06/14 11:53:52;;;;;;;3.15;1.30;;;26.10;53.00;;;;;;5012884;28;20163;-76
2022/06/14 11:56:40;;;;;;;1.90;1.40;;;26.30;50.70;;;;;;5010706;28;20249;-75
2022/06/14 11:59:15;;;;;;;1.60;1.40;;;26.30;52.20;;;;;;4992664;28;20175;-76
2022/06/14 12:02:08;;;;;;;1.90;1.30;;;26.60;52.30;;;;;;5000449;28;20162;-76
2022/06/14 12:05:01;;;;;;;1.40;1.30;;;26.70;48.60;;;;;;5012039;28;20531;-76
2022/06/14 12:07:39;;;;;;;1.80;1.20;;;26.60;50.00;;;;;;5012260;28;20545;-76
2022/06/14 12:10:26;;;;;;;3.90;1.40;;;26.50;50.40;;;;;;4995695;28;20202;-76
2022/06/14 12:13:09;;;;;;;1.60;1.20;;;26.40;48.80;;;;;;5011617;28;20170;-76
2022/06/14 12:16:00;;;;;;;3.05;1.50;;;26.60;49.80;;;;;;4992119;28;20649;-75
2022/06/14 12:18:30;;;;;;;2.00;1.40;;;27.00;46.70;;;;;;4993322;28;20163;-76
2022/06/14 12:21:28;;;;;;;1.33;1.17;;;27.00;47.20;;;;;;4976001;28;20179;-76
2022/06/14 12:23:59;;;;;;;1.90;1.20;;;26.70;47.40;;;;;;4991912;28;20635;-75
2022/06/14 12:26:55;;;;;;;1.98;1.35;;;26.70;49.00;;;;;;4991620;28;20245;-76
2022/06/14 12:29:26;;;;;;;2.85;1.33;;;26.90;47.50;;;;;;4993028;28;20622;-76
2022/06/14 12:32:11;;;;;;;2.72;1.42;;;26.40;46.80;;;;;;4992134;28;20171;-76
2022/06/14 12:34:58;;;;;;;1.80;1.20;;;26.70;49.10;;;;;;4993037;28;20162;-75
2022/06/14 12:37:50;;;;;;;3.60;1.50;;;27.20;48.40;;;;;;4975645;28;20200;-76
2022/06/14 12:40:32;;;;;;;2.15;1.40;;;27.20;46.90;;;;;;4991555;28;20575;-76
2022/06/14 12:43:02;;;;;;;1.42;1.13;;;27.50;49.00;;;;;;4991951;28;20168;-76
2022/06/14 12:45:36;;;;;;;3.22;1.58;;;27.80;46.70;;;;;;4991608;28;20199;-76
2022/06/14 12:48:28;;;;;;;4.60;1.30;;;27.70;47.20;;;;;;4991730;28;20211;-76
2022/06/14 12:51:11;;;;;;;2.92;1.40;;;27.90;47.40;;;;;;5003704;28;20254;-76
2022/06/14 12:53:57;;;;;;;1.55;1.30;;;28.20;46.20;;;;;;5011250;28;20159;-76
2022/06/14 12:56:36;;;;;;;1.83;1.23;;;27.90;43.80;;;;;;5009172;28;20205;-76
2022/06/14 12:59:19;;;;;;;2.97;1.30;;;28.10;43.80;;;;;;5010924;28;20186;-76
2022/06/14 13:02:13;;;;;;;1.88;1.40;;;28.30;45.20;;;;;;5014359;28;20211;-76
2022/06/14 13:04:50;;;;;;;3.65;1.30;;;28.20;43.30;;;;;;4984718;28;20198;-76
2022/06/14 13:07:38;;;;;;;2.17;1.10;;;28.20;43.00;;;;;;4993571;28;20221;-76
2022/06/14 13:10:16;;;;;;;3.55;1.33;;;28.40;43.40;;;;;;5002342;28;20175;-76
2022/06/14 13:13:18;;;;;;;4.25;1.40;;;28.30;42.30;;;;;;4996866;28;20167;-76
2022/06/14 13:15:59;;;;;;;2.90;1.20;;;28.20;41.20;;;;;;4995406;28;20194;-76
2022/06/14 13:19:03;;;;;;;2.15;1.10;;;27.90;41.10;;;;;;5000958;28;20207;-76
2022/06/14 13:21:47;;;;;;;2.40;1.20;;;27.50;41.50;;;;;;5015143;28;20233;-76
2022/06/14 13:24:41;;;;;;;2.00;1.40;;;27.20;42.40;;;;;;5009060;28;20175;-76
2022/06/14 13:27:28;;;;;;;3.63;1.35;;;27.00;41.70;;;;;;5012405;28;20210;-76
2022/06/14 13:30:19;;;;;;;1.98;1.17;;;26.80;42.10;;;;;;5014982;28;20202;-76
2022/06/14 13:33:05;;;;;;;1.77;1.20;;;26.90;41.20;;;;;;4988286;28;20215;-76
2022/06/14 13:35:43;;;;;;;1.33;1.10;;;27.00;41.10;;;;;;5014599;28;20529;-76
2022/06/14 13:38:17;;;;;;;2.42;1.30;;;26.70;40.80;;;;;;4995312;28;20171;-76
2022/06/14 13:40:53;;;;;;;2.17;1.38;;;26.90;40.50;;;;;;4994856;28;20155;-76
2022/06/14 13:43:46;;;;;;;2.22;1.30;;;27.10;42.30;;;;;;4994829;28;20263;-76
2022/06/14 13:46:38;;;;;;;1.30;1.02;;;26.90;40.80;;;;;;5020248;22;20293;-76
2022/06/14 13:49:16;;;;;;;2.22;1.00;;;26.80;40.60;;;;;;5045179;28;20158;-76
2022/06/14 13:51:55;;;;;;;2.45;1.40;;;26.70;40.70;;;;;;5053989;28;20166;-76
2022/06/14 13:54:38;;;;;;;2.90;1.02;;;27.00;41.50;;;;;;5034420;28;20185;-76
2022/06/14 13:57:28;;;;;;;2.35;1.27;;;27.70;41.00;;;;;;5034237;28;20194;-77
2022/06/14 13:59:58;;;;;;;2.65;1.20;;;27.90;41.00;;;;;;5034288;28;20178;-77
2022/06/14 14:02:29;;;;;;;1.35;1.05;;;28.10;39.30;;;;;;5034159;28;20162;-77
2022/06/14 14:05:06;;;;;;;2.05;1.15;;;28.10;38.10;;;;;;5040727;28;20202;-77
2022/06/14 14:07:57;;;;;;;2.75;1.30;;;27.40;38.90;;;;;;5053546;28;20193;-77
2022/06/14 14:10:49;;;;;;;1.60;1.20;;;27.50;38.80;;;;;;5054988;28;20153;-77
2022/06/14 14:13:33;;;;;;;3.50;1.30;;;27.90;38.30;;;;;;5052965;28;20190;-77